Time;durP1;ratioP1;P1;durP2;ratioP2;P2;SDS_P1;SDS_P2;PMS_P1;PMS_P2;Temp;Humidity;BMP_temperature;BMP_pressure;BME280_temperature;BME280_humidity;BME280_pressure;Samples;Min_cycle;Max_cycle;Signal;HPM_P1;HPM_P2
2023/09/24 00:01:13;;;;;;;5.45;2.85;;;14.60;99.90;;;;;;5092432;28;20437;-87
2023/09/24 00:03:39;;;;;;;6.13;3.15;;;14.60;99.90;;;;;;5093439;28;20488;-89
2023/09/24 00:06:06;;;;;;;8.75;2.88;;;14.70;99.90;;;;;;5092988;28;20024;-87
2023/09/24 00:08:32;;;;;;;5.47;2.53;;;14.80;99.90;;;;;;5092162;28;20016;-86
2023/09/24 00:10:58;;;;;;;7.20;2.60;;;14.70;99.90;;;;;;5091574;28;20116;-85
2023/09/24 00:13:24;;;;;;;8.57;2.83;;;14.70;99.90;;;;;;5092585;28;20054;-87
2023/09/24 00:15:51;;;;;;;6.07;2.58;;;14.70;99.90;;;;;;5092026;28;20035;-90
2023/09/24 00:18:17;;;;;;;6.00;2.70;;;14.80;99.90;;;;;;5092963;28;20023;-89
2023/09/24 00:20:43;;;;;;;9.13;2.90;;;14.80;99.90;;;;;;5092776;28;20036;-85
2023/09/24 00:23:10;;;;;;;10.60;3.20;;;14.90;99.90;;;;;;5092710;28;20024;-88
2023/09/24 00:25:39;;;;;;;6.68;2.50;;;14.80;99.90;;;;;;5091560;28;20035;-88
2023/09/24 00:28:05;;;;;;;9.07;2.90;;;14.90;99.90;;;;;;5091158;28;20476;-87
2023/09/24 00:30:34;;;;;;;5.40;2.58;;;14.90;99.90;;;;;;5090641;28;20035;-88
2023/09/24 00:33:00;;;;;;;8.00;2.53;;;14.90;99.90;;;;;;5086973;28;20435;-87
2023/09/24 00:35:26;;;;;;;7.15;2.67;;;14.90;99.90;;;;;;5079388;28;20447;-89
2023/09/24 00:37:52;;;;;;;6.03;2.65;;;14.90;99.90;;;;;;5077637;28;20472;-84
2023/09/24 00:40:18;;;;;;;7.10;2.63;;;14.80;99.90;;;;;;5092218;28;20032;-89
2023/09/24 00:42:44;;;;;;;9.45;2.78;;;14.80;99.90;;;;;;5092028;28;20032;-89
2023/09/24 00:45:11;;;;;;;7.55;2.53;;;14.90;99.90;;;;;;5092436;28;20486;-88
2023/09/24 00:47:43;;;;;;;9.07;2.78;;;14.80;99.90;;;;;;5092337;28;20024;-88
2023/09/24 00:50:10;;;;;;;8.07;3.03;;;14.80;99.90;;;;;;5092453;28;20028;-87
2023/09/24 00:52:36;;;;;;;9.73;2.83;;;14.70;99.90;;;;;;5091796;28;20433;-89
2023/09/24 00:55:10;;;;;;;6.65;2.70;;;14.70;99.90;;;;;;5091065;28;20040;-89
2023/09/24 00:57:36;;;;;;;7.25;2.83;;;14.60;99.90;;;;;;5092307;28;20020;-89
2023/09/24 01:00:09;;;;;;;9.55;2.83;;;14.60;99.90;;;;;;5090947;28;20024;-87
2023/09/24 01:02:36;;;;;;;6.25;2.75;;;14.50;99.90;;;;;;5085554;28;20017;-89
2023/09/24 01:05:02;;;;;;;7.30;3.00;;;14.50;99.90;;;;;;5071934;28;20020;-89
2023/09/24 01:07:30;;;;;;;8.95;2.88;;;14.50;99.90;;;;;;5074797;28;20089;-88
2023/09/24 01:09:55;;;;;;;8.20;2.47;;;14.50;99.90;;;;;;5090034;28;20491;-89
2023/09/24 01:12:22;;;;;;;7.80;2.85;;;14.50;99.90;;;;;;5091577;28;20035;-84
2023/09/24 01:14:50;;;;;;;9.50;3.30;;;14.50;99.90;;;;;;5090169;28;20044;-90
2023/09/24 01:17:17;;;;;;;;;;;14.40;99.90;;;;;;5091286;28;20036;-90
2023/09/24 01:19:42;;;;;;;6.30;2.72;;;14.40;99.90;;;;;;5089854;28;19943;-89
2023/09/24 01:22:08;;;;;;;8.15;2.58;;;14.30;99.90;;;;;;5090722;28;20055;-88
2023/09/24 01:24:34;;;;;;;7.57;2.85;;;14.30;99.90;;;;;;5069666;28;20112;-88
2023/09/24 01:26:59;;;;;;;5.47;2.58;;;14.30;99.90;;;;;;5077078;28;20031;-88
2023/09/24 01:29:26;;;;;;;4.57;2.40;;;14.30;99.90;;;;;;5092244;28;20024;-84
2023/09/24 01:31:52;;;;;;;5.90;2.55;;;14.30;99.90;;;;;;5088849;28;20024;-86
2023/09/24 01:34:19;;;;;;;6.38;2.75;;;14.30;99.90;;;;;;5073922;28;20058;-89
2023/09/24 01:36:45;;;;;;;6.90;3.15;;;14.30;99.90;;;;;;5090349;28;20024;-90
2023/09/24 01:39:15;;;;;;;4.90;2.85;;;14.30;99.90;;;;;;5073058;28;20032;-88
2023/09/24 01:41:41;;;;;;;8.57;2.78;;;14.30;99.90;;;;;;5089670;28;20016;-91
2023/09/24 01:44:07;;;;;;;10.52;3.78;;;14.30;99.90;;;;;;5082539;28;20107;-89
2023/09/24 01:46:33;;;;;;;7.65;2.92;;;14.30;99.90;;;;;;5088996;28;20035;-90
2023/09/24 01:49:01;;;;;;;4.97;2.90;;;14.30;99.90;;;;;;5085408;28;20152;-89
2023/09/24 01:51:26;;;;;;;11.32;3.30;;;14.30;99.90;;;;;;5088947;28;20034;-84
2023/09/24 01:53:52;;;;;;;7.43;3.10;;;14.20;99.90;;;;;;5090474;28;20585;-87
2023/09/24 01:56:18;;;;;;;8.52;3.45;;;14.20;99.90;;;;;;5089433;28;20032;-85
2023/09/24 01:58:45;;;;;;;8.07;3.10;;;14.20;99.90;;;;;;5090817;28;20365;-88
2023/09/24 02:01:11;;;;;;;8.82;3.33;;;14.20;99.90;;;;;;5086033;28;20032;-88
2023/09/24 02:03:37;;;;;;;5.78;3.13;;;14.20;99.90;;;;;;5070398;28;20025;-87
2023/09/24 02:06:07;;;;;;;7.43;2.90;;;14.20;99.90;;;;;;5070620;28;20021;-90
2023/09/24 02:08:32;;;;;;;9.82;3.50;;;14.10;99.90;;;;;;5069602;28;20028;-91
2023/09/24 02:10:59;;;;;;;9.07;3.05;;;14.10;99.90;;;;;;5075784;28;20024;-86
2023/09/24 02:13:24;;;;;;;7.72;3.10;;;14.10;99.90;;;;;;5091340;28;20031;-87
2023/09/24 02:15:50;;;;;;;7.72;3.08;;;14.10;99.90;;;;;;5088761;28;20376;-87
2023/09/24 02:18:16;;;;;;;6.38;3.00;;;14.10;99.90;;;;;;5089118;28;20106;-89
2023/09/24 02:20:43;;;;;;;7.30;3.13;;;14.10;99.90;;;;;;5090594;28;20060;-88
2023/09/24 02:23:10;;;;;;;7.15;2.70;;;14.10;99.90;;;;;;5083801;28;20017;-91
2023/09/24 02:25:37;;;;;;;7.20;3.13;;;14.10;99.90;;;;;;5070489;28;20050;-91
2023/09/24 02:28:04;;;;;;;8.85;2.67;;;14.00;99.90;;;;;;5074176;28;20020;-89
2023/09/24 02:30:31;;;;;;;9.77;3.22;;;14.00;99.90;;;;;;5090503;28;20020;-87
2023/09/24 02:33:01;;;;;;;6.18;2.92;;;14.00;99.90;;;;;;5086758;28;20370;-89
2023/09/24 02:35:26;;;;;;;8.20;2.80;;;13.90;99.90;;;;;;5071109;28;20404;-87
2023/09/24 02:37:53;;;;;;;10.18;2.95;;;14.00;99.90;;;;;;5070846;28;20102;-88
2023/09/24 02:40:23;;;;;;;8.50;2.90;;;14.00;99.90;;;;;;5085143;28;20422;-91
2023/09/24 02:42:54;;;;;;;9.95;3.10;;;14.00;99.90;;;;;;5070082;28;20025;-88
2023/09/24 02:45:20;;;;;;;10.35;3.25;;;14.00;99.90;;;;;;5085638;28;20047;-88
2023/09/24 02:47:49;;;;;;;8.50;2.92;;;14.00;99.90;;;;;;5086653;28;20107;-89
2023/09/24 02:50:22;;;;;;;7.50;2.97;;;14.10;99.90;;;;;;5074733;28;20029;-87
2023/09/24 02:52:49;;;;;;;9.00;3.22;;;14.10;99.90;;;;;;5071625;28;20035;-89
2023/09/24 02:55:15;;;;;;;6.22;2.72;;;14.10;99.90;;;;;;5090190;28;20036;-90
2023/09/24 02:57:42;;;;;;;8.48;2.85;;;14.10;99.90;;;;;;5088933;28;20107;-89
2023/09/24 03:00:19;;;;;;;7.38;2.97;;;14.10;99.90;;;;;;5088620;28;20024;-87
2023/09/24 03:02:48;;;;;;;8.43;2.97;;;14.10;99.90;;;;;;5090064;28;20426;-88
2023/09/24 03:05:20;;;;;;;7.20;2.58;;;14.20;99.90;;;;;;5089682;28;20043;-87
2023/09/24 03:07:49;;;;;;;7.40;2.60;;;14.10;99.90;;;;;;5089138;28;20027;-88
2023/09/24 03:10:16;;;;;;;8.10;2.90;;;14.10;99.90;;;;;;5088381;28;20024;-88
2023/09/24 03:12:42;;;;;;;8.93;3.03;;;14.20;99.90;;;;;;5089841;28;20045;-89
2023/09/24 03:15:10;;;;;;;8.77;2.92;;;14.10;99.90;;;;;;5088225;28;20047;-87
2023/09/24 03:17:38;;;;;;;6.75;3.20;;;14.10;99.90;;;;;;5088569;28;20024;-89
2023/09/24 03:20:14;;;;;;;11.02;3.10;;;14.20;99.90;;;;;;5090018;28;20512;-88
2023/09/24 03:22:48;;;;;;;9.75;3.17;;;14.20;99.90;;;;;;5088363;28;20101;-90
2023/09/24 03:25:18;;;;;;;12.57;2.75;;;14.10;99.90;;;;;;5089677;28;20031;-85
2023/09/24 03:27:45;;;;;;;6.38;2.95;;;14.10;99.90;;;;;;5089860;28;20145;-88
2023/09/24 03:30:13;;;;;;;9.55;2.47;;;14.00;99.90;;;;;;5088768;28;20509;-90
2023/09/24 03:32:40;;;;;;;7.90;2.88;;;14.10;99.90;;;;;;5088873;28;20016;-86
2023/09/24 03:35:08;;;;;;;6.45;2.65;;;14.10;99.90;;;;;;5088688;28;20036;-89
2023/09/24 03:37:37;;;;;;;9.68;2.90;;;14.20;99.90;;;;;;5087273;28;20576;-87
2023/09/24 03:40:05;;;;;;;;;;;14.20;99.90;;;;;;5090269;28;20401;-87
2023/09/24 03:42:32;;;;;;;6.53;2.90;;;14.20;99.90;;;;;;5088146;28;19951;-89
2023/09/24 03:44:57;;;;;;;7.38;2.90;;;14.10;99.90;;;;;;5089083;28;20036;-90
2023/09/24 03:47:23;;;;;;;5.95;2.53;;;14.10;99.90;;;;;;5086068;28;20054;-89
2023/09/24 03:49:48;;;;;;;8.15;3.10;;;14.10;99.90;;;;;;5083000;28;20032;-90
2023/09/24 03:52:14;;;;;;;10.23;2.78;;;14.20;99.90;;;;;;5071998;28;20032;-88
2023/09/24 03:54:40;;;;;;;10.52;2.80;;;14.20;99.90;;;;;;5084944;28;20439;-91
2023/09/24 03:57:05;;;;;;;7.93;2.92;;;14.20;99.90;;;;;;5068846;28;20072;-87
2023/09/24 03:59:36;;;;;;;10.30;2.80;;;14.30;99.90;;;;;;5070165;28;20028;-91
2023/09/24 04:02:02;;;;;;;10.70;2.95;;;14.20;99.90;;;;;;5077830;28;20024;-87
2023/09/24 04:04:28;;;;;;;5.65;2.30;;;14.30;99.90;;;;;;5088518;28;20046;-88
2023/09/24 04:06:53;;;;;;;5.35;2.60;;;14.20;99.90;;;;;;5089234;28;20472;-90
2023/09/24 04:09:19;;;;;;;5.70;2.40;;;14.20;99.90;;;;;;5089545;28;20111;-87
2023/09/24 04:11:46;;;;;;;8.93;2.47;;;14.20;99.90;;;;;;5088092;28;20024;-88
2023/09/24 04:14:12;;;;;;;5.38;2.47;;;14.20;99.90;;;;;;5089213;28;20403;-90
2023/09/24 04:16:37;;;;;;;9.27;2.83;;;14.20;99.90;;;;;;5088608;28;20095;-89
2023/09/24 04:19:03;;;;;;;6.38;2.50;;;14.20;99.90;;;;;;5090074;28;20480;-89
2023/09/24 04:21:29;;;;;;;5.70;2.67;;;14.20;99.90;;;;;;5079605;28;20028;-91
2023/09/24 04:23:54;;;;;;;7.35;2.70;;;14.10;99.90;;;;;;5072052;28;20025;-88
2023/09/24 04:26:21;;;;;;;4.85;2.60;;;14.10;99.90;;;;;;5070142;28;20079;-89
2023/09/24 04:28:48;;;;;;;6.68;2.70;;;14.10;99.90;;;;;;5072452;28;20103;-90
2023/09/24 04:31:14;;;;;;;6.80;2.55;;;14.10;99.90;;;;;;5072974;28;20032;-87
2023/09/24 04:33:41;;;;;;;6.00;2.60;;;14.10;99.90;;;;;;5090828;28;20032;-90
2023/09/24 04:36:09;;;;;;;7.78;2.47;;;14.20;99.90;;;;;;5090286;28;20433;-85
2023/09/24 04:38:36;;;;;;;5.95;2.80;;;14.20;99.90;;;;;;5084333;28;20032;-85
2023/09/24 04:41:02;;;;;;;7.40;2.72;;;14.10;99.90;;;;;;5086127;28;20055;-89
2023/09/24 04:43:28;;;;;;;5.72;2.58;;;14.20;99.90;;;;;;5091291;28;20032;-91
2023/09/24 04:45:53;;;;;;;9.90;2.80;;;14.20;99.90;;;;;;5091503;28;20115;-90
2023/09/24 04:48:19;;;;;;;8.43;2.78;;;14.20;99.90;;;;;;5072755;28;20033;-89
2023/09/24 04:50:45;;;;;;;6.68;2.60;;;14.30;99.90;;;;;;5089862;28;20032;-87
2023/09/24 04:53:10;;;;;;;4.90;2.55;;;14.30;99.90;;;;;;5082197;28;20412;-84
2023/09/24 04:55:36;;;;;;;7.45;2.88;;;14.20;99.90;;;;;;5081897;28;20043;-85
2023/09/24 04:58:02;;;;;;;4.60;2.55;;;14.30;99.90;;;;;;5071994;28;20476;-89
2023/09/24 05:00:28;;;;;;;8.15;2.97;;;14.30;99.90;;;;;;5071662;28;20032;-88
2023/09/24 05:02:54;;;;;;;4.45;2.42;;;14.30;99.90;;;;;;5073230;28;20035;-89
2023/09/24 05:05:20;;;;;;;6.93;2.63;;;14.30;99.90;;;;;;5089927;28;20072;-88
2023/09/24 05:07:47;;;;;;;9.10;2.60;;;14.40;99.90;;;;;;5092128;28;20158;-87
2023/09/24 05:10:12;;;;;;;6.95;2.90;;;14.40;99.90;;;;;;5074419;28;20039;-88
2023/09/24 05:12:39;;;;;;;7.47;2.95;;;14.40;99.90;;;;;;5079822;28;20036;-88
2023/09/24 05:15:06;;;;;;;9.40;2.95;;;14.40;99.90;;;;;;5086476;28;20035;-86
2023/09/24 05:17:33;;;;;;;9.98;2.70;;;14.50;99.90;;;;;;5087888;28;20021;-88
2023/09/24 05:19:59;;;;;;;9.02;2.60;;;14.50;99.90;;;;;;5073079;28;20581;-90
2023/09/24 05:22:27;;;;;;;8.52;2.65;;;14.40;99.90;;;;;;5089218;28;20028;-89
2023/09/24 05:24:53;;;;;;;5.18;2.85;;;14.40;99.90;;;;;;5091067;28;20034;-91
2023/09/24 05:27:19;;;;;;;7.68;2.70;;;14.40;99.90;;;;;;5091827;28;20035;-87
2023/09/24 05:29:48;;;;;;;8.88;2.55;;;14.40;99.90;;;;;;5090257;28;20046;-89
2023/09/24 05:32:14;;;;;;;6.63;2.70;;;14.40;99.90;;;;;;5090092;28;20082;-89
2023/09/24 05:34:39;;;;;;;5.53;2.55;;;14.30;99.90;;;;;;5090171;28;20036;-87
2023/09/24 05:37:06;;;;;;;11.45;2.72;;;14.30;99.90;;;;;;5090172;28;20574;-88
2023/09/24 05:39:33;;;;;;;5.63;2.30;;;14.30;99.90;;;;;;5091556;28;20502;-90
2023/09/24 05:41:59;;;;;;;4.57;2.45;;;14.30;99.90;;;;;;5089413;28;20296;-89
2023/09/24 05:44:24;;;;;;;6.20;2.30;;;14.20;99.90;;;;;;5091030;28;20529;-88
2023/09/24 05:46:50;;;;;;;7.32;2.78;;;14.30;99.90;;;;;;5090148;28;20475;-89
2023/09/24 05:49:16;;;;;;;10.45;3.35;;;14.20;99.90;;;;;;5091406;28;20055;-87
2023/09/24 05:51:42;;;;;;;8.32;2.60;;;14.20;99.90;;;;;;5090105;28;20506;-88
2023/09/24 05:54:10;;;;;;;8.15;2.53;;;14.20;99.90;;;;;;5090764;28;20032;-90
2023/09/24 05:56:36;;;;;;;4.88;2.40;;;14.30;99.90;;;;;;5090932;28;20016;-90
2023/09/24 05:59:02;;;;;;;5.15;2.67;;;14.20;99.90;;;;;;5089107;28;20028;-87
2023/09/24 06:01:28;;;;;;;6.28;2.63;;;14.20;99.90;;;;;;5086955;28;20207;-89
2023/09/24 06:03:53;;;;;;;8.82;3.08;;;14.30;99.90;;;;;;5088375;28;20089;-89
2023/09/24 06:06:19;;;;;;;6.93;2.60;;;14.30;99.90;;;;;;5072268;28;20472;-86
2023/09/24 06:08:45;;;;;;;9.40;2.60;;;14.30;99.90;;;;;;5090914;28;20030;-89
2023/09/24 06:11:10;;;;;;;7.72;2.50;;;14.30;99.90;;;;;;5091731;28;20024;-86
2023/09/24 06:13:36;;;;;;;10.32;2.80;;;14.30;99.90;;;;;;5090167;28;20059;-90
2023/09/24 06:16:03;;;;;;;6.85;2.38;;;14.30;99.90;;;;;;5087801;28;20032;-89
2023/09/24 06:18:28;;;;;;;6.82;2.88;;;14.30;99.90;;;;;;5079343;28;20468;-87
2023/09/24 06:20:54;;;;;;;6.22;2.85;;;14.30;99.90;;;;;;5075568;28;20024;-89
2023/09/24 06:23:20;;;;;;;6.50;2.70;;;14.30;99.90;;;;;;5090705;28;20012;-88
2023/09/24 06:25:53;;;;;;;5.78;2.65;;;14.30;99.90;;;;;;5084626;28;20025;-86
2023/09/24 06:28:19;;;;;;;7.32;2.67;;;14.30;99.90;;;;;;5077899;28;20032;-89
2023/09/24 06:30:45;;;;;;;8.18;2.95;;;14.40;99.90;;;;;;5086312;28;20024;-92
2023/09/24 06:33:11;;;;;;;5.97;2.55;;;14.40;99.90;;;;;;5079943;28;20102;-89
2023/09/24 06:35:39;;;;;;;6.53;2.67;;;14.40;99.90;;;;;;5086943;28;20550;-88
2023/09/24 06:38:05;;;;;;;7.20;2.65;;;14.50;99.90;;;;;;5086709;28;20035;-90
2023/09/24 06:40:31;;;;;;;6.65;2.72;;;14.50;99.90;;;;;;5090064;28;20245;-87
2023/09/24 06:42:57;;;;;;;5.95;2.80;;;14.40;99.90;;;;;;5087730;28;20052;-88
2023/09/24 06:45:22;;;;;;;5.22;2.50;;;14.40;99.90;;;;;;5089974;28;20085;-89
2023/09/24 06:47:48;;;;;;;6.70;2.55;;;14.40;99.90;;;;;;5086715;28;20089;-87
2023/09/24 06:50:14;;;;;;;10.75;2.90;;;14.40;99.90;;;;;;5089295;28;20032;-88
2023/09/24 06:52:39;;;;;;;4.35;2.38;;;14.40;99.90;;;;;;5089011;28;20028;-87
2023/09/24 06:55:12;;;;;;;7.13;2.50;;;14.40;99.90;;;;;;5083966;28;20060;-87
2023/09/24 06:57:37;;;;;;;7.45;2.70;;;14.40;99.90;;;;;;5091883;28;20436;-88
2023/09/24 07:00:04;;;;;;;8.90;2.75;;;14.40;99.90;;;;;;5089694;28;20544;-89
2023/09/24 07:02:30;;;;;;;6.05;3.00;;;14.50;99.90;;;;;;5096824;28;20019;-90
2023/09/24 07:04:55;;;;;;;4.45;2.38;;;14.40;99.90;;;;;;5097262;28;20081;-90
2023/09/24 07:07:22;;;;;;;8.40;2.40;;;14.40;99.90;;;;;;5090043;28;20020;-91
2023/09/24 07:09:48;;;;;;;7.93;3.17;;;14.50;99.90;;;;;;5091056;28;20027;-91
2023/09/24 07:12:14;;;;;;;6.50;2.45;;;14.60;99.90;;;;;;5089924;28;20030;-89
2023/09/24 07:14:40;;;;;;;5.25;2.55;;;14.70;99.90;;;;;;5090531;28;20070;-88
2023/09/24 07:17:06;;;;;;;4.93;2.30;;;14.70;99.90;;;;;;5089900;28;20069;-90
2023/09/24 07:19:32;;;;;;;7.28;2.20;;;14.80;99.90;;;;;;5090165;28;20020;-90
2023/09/24 07:21:58;;;;;;;8.52;2.70;;;14.90;99.90;;;;;;5092700;28;20030;-91
2023/09/24 07:24:24;;;;;;;6.43;2.33;;;15.00;99.90;;;;;;5069790;28;20403;-90
2023/09/24 07:26:50;;;;;;;9.00;2.83;;;15.00;99.90;;;;;;5069679;28;20059;-90
2023/09/24 07:29:16;;;;;;;7.03;2.63;;;15.00;99.90;;;;;;5069668;28;20029;-91
2023/09/24 07:31:42;;;;;;;6.57;2.50;;;15.20;99.90;;;;;;5080841;28;20101;-91
2023/09/24 07:34:09;;;;;;;7.70;2.88;;;15.20;99.90;;;;;;5089696;28;20187;-90
2023/09/24 07:36:35;;;;;;;7.93;2.80;;;15.30;99.90;;;;;;5089503;28;20249;-88
2023/09/24 07:39:01;;;;;;;7.80;2.70;;;15.30;99.90;;;;;;5088777;28;20058;-90
2023/09/24 07:41:26;;;;;;;6.13;2.90;;;15.30;99.90;;;;;;5089323;28;20373;-88
2023/09/24 07:43:53;;;;;;;7.85;2.85;;;15.50;99.90;;;;;;5088357;28;20472;-89
2023/09/24 07:46:19;;;;;;;8.48;3.33;;;15.50;99.90;;;;;;5089002;28;20039;-91
2023/09/24 07:48:47;;;;;;;8.70;2.65;;;15.60;99.90;;;;;;5079621;28;20020;-90
2023/09/24 07:51:13;;;;;;;6.95;2.35;;;15.70;99.90;;;;;;5087054;28;20373;-90
2023/09/24 07:53:39;;;;;;;7.82;2.80;;;15.70;99.90;;;;;;5086604;28;20540;-91
2023/09/24 07:56:11;;;;;;;7.65;2.47;;;15.80;99.90;;;;;;5105361;28;20118;-91
2023/09/24 07:58:38;;;;;;;6.13;2.40;;;15.80;99.90;;;;;;5089604;28;20045;-93
2023/09/24 08:01:06;;;;;;;9.23;2.67;;;15.90;99.90;;;;;;5091719;28;20480;-90
2023/09/24 08:03:32;;;;;;;5.82;2.40;;;16.00;99.90;;;;;;5093796;28;20017;-89
2023/09/24 08:05:59;;;;;;;7.78;2.83;;;16.10;99.90;;;;;;5091518;28;20035;-91
2023/09/24 08:08:26;;;;;;;7.18;2.53;;;16.20;99.90;;;;;;5092963;28;20032;-91
2023/09/24 08:10:54;;;;;;;6.00;2.20;;;16.30;99.90;;;;;;5093337;28;20039;-93
2023/09/24 08:13:21;;;;;;;6.80;2.50;;;16.30;99.90;;;;;;5095517;28;20060;-90
2023/09/24 08:19:10;;;;;;;6.47;2.42;;;16.40;99.90;;;;;;5090931;22;20420;-90
2023/09/24 08:21:38;;;;;;;7.40;2.75;;;16.50;99.90;;;;;;5058401;28;20029;-90
2023/09/24 08:24:04;;;;;;;6.10;2.50;;;16.60;99.90;;;;;;5056578;28;20024;-91
2023/09/24 08:26:31;;;;;;;6.60;2.33;;;16.60;99.90;;;;;;5056250;28;20496;-91
2023/09/24 08:28:57;;;;;;;7.47;2.55;;;16.60;99.90;;;;;;5056207;28;20052;-91
2023/09/24 08:31:25;;;;;;;6.72;2.50;;;16.60;99.90;;;;;;5056145;28;20059;-92
2023/09/24 08:33:51;;;;;;;5.93;2.08;;;16.70;99.90;;;;;;5055967;28;20032;-91
2023/09/24 08:36:18;;;;;;;8.60;2.45;;;16.80;99.90;;;;;;5055840;28;20025;-91
2023/09/24 08:38:43;;;;;;;12.00;2.63;;;16.90;99.90;;;;;;5057930;28;20055;-92
2023/09/24 08:41:12;;;;;;;6.45;2.20;;;17.00;99.90;;;;;;5055025;28;20055;-89
2023/09/24 08:43:42;;;;;;;5.13;2.33;;;17.20;99.90;;;;;;5054341;28;20028;-89
2023/09/24 08:46:08;;;;;;;8.88;2.33;;;17.40;99.90;;;;;;5054884;28;20032;-89
2023/09/24 08:48:35;;;;;;;7.57;2.40;;;17.50;99.90;;;;;;5054507;28;20021;-87
2023/09/24 08:51:03;;;;;;;5.75;2.30;;;17.60;99.90;;;;;;5054928;28;20029;-91
2023/09/24 08:53:30;;;;;;;5.32;2.40;;;17.60;99.90;;;;;;5054970;28;20024;-89
2023/09/24 08:55:55;;;;;;;7.35;2.58;;;17.70;99.90;;;;;;5054812;28;20036;-90
2023/09/24 08:58:22;;;;;;;6.97;2.03;;;17.70;99.90;;;;;;5054786;28;20391;-89
2023/09/24 09:00:51;;;;;;;4.95;2.20;;;17.80;99.90;;;;;;5070822;28;20125;-87
2023/09/24 09:03:17;;;;;;;;;;;17.80;99.90;;;;;;5072759;28;20488;-90
2023/09/24 09:05:44;;;;;;;7.80;2.17;;;17.80;99.90;;;;;;5053461;28;19904;-87
2023/09/24 09:08:11;;;;;;;5.28;2.28;;;17.90;99.90;;;;;;5071678;28;20273;-87
2023/09/24 09:10:37;;;;;;;5.97;2.08;;;18.00;99.90;;;;;;5053753;28;20024;-89
2023/09/24 09:13:12;;;;;;;7.07;2.22;;;18.20;99.90;;;;;;5052326;28;20435;-87
2023/09/24 09:15:39;;;;;;;8.07;2.38;;;18.30;99.90;;;;;;5071653;28;20028;-89
2023/09/24 09:18:05;;;;;;;6.40;2.20;;;18.30;99.90;;;;;;5054005;28;20036;-88
2023/09/24 09:20:44;;;;;;;5.72;2.20;;;18.50;99.90;;;;;;5071798;28;20527;-89
2023/09/24 09:23:12;;;;;;;7.97;2.88;;;18.60;99.90;;;;;;5071708;28;20031;-88
2023/09/24 09:26:04;;;;;;;6.25;2.15;;;18.60;99.90;;;;;;5053638;28;20024;-88
2023/09/24 09:28:32;;;;;;;7.45;2.22;;;18.80;99.90;;;;;;5051248;28;20035;-90
2023/09/24 09:31:02;;;;;;;6.22;2.22;;;18.80;99.90;;;;;;5071227;28;20451;-90
2023/09/24 09:33:29;;;;;;;9.60;2.42;;;18.80;99.90;;;;;;5053285;28;20082;-87
2023/09/24 09:35:57;;;;;;;6.32;2.22;;;18.80;99.90;;;;;;5054333;28;20032;-87
2023/09/24 09:38:24;;;;;;;3.20;2.05;;;19.00;99.90;;;;;;5058054;28;20030;-87
2023/09/24 09:40:59;;;;;;;9.95;2.65;;;19.10;99.90;;;;;;5053944;28;20063;-87
2023/09/24 09:43:33;;;;;;;8.68;2.03;;;19.10;99.90;;;;;;5069905;28;20070;-87
2023/09/24 09:46:00;;;;;;;8.18;2.47;;;19.20;99.90;;;;;;5053032;28;20453;-88
2023/09/24 09:48:33;;;;;;;6.57;1.93;;;19.30;99.90;;;;;;5069954;28;20115;-87
2023/09/24 09:51:03;;;;;;;6.60;2.10;;;19.40;99.90;;;;;;5053221;28;20056;-87
2023/09/24 09:53:35;;;;;;;5.20;2.20;;;19.50;99.90;;;;;;5070930;28;20056;-91
2023/09/24 09:56:02;;;;;;;6.25;2.03;;;;;;;;;;5070623;28;20467;-93
2023/09/24 09:58:30;;;;;;;6.18;2.10;;;;;;;;;;5070790;28;20031;-87
2023/09/24 10:00:57;;;;;;;6.65;2.00;;;;;;;;;;5052911;28;20024;-86
2023/09/24 10:03:24;;;;;;;7.00;2.05;;;;;;;;;;5071147;28;20154;-86
2023/09/24 10:05:50;;;;;;;7.90;2.10;;;;;;;;;;5071556;28;20050;-88
2023/09/24 10:08:34;;;;;;;9.60;2.00;;;;;;;;;;5052813;28;20029;-87
2023/09/24 10:11:01;;;;;;;6.60;2.13;;;;;;;;;;5052726;28;20029;-88
2023/09/24 10:13:43;;;;;;;6.57;2.00;;;;;;;;;;5084480;28;20028;-87
2023/09/24 10:16:24;;;;;;;7.25;2.13;;;;;;;;;;5072576;28;20031;-87
2023/09/24 10:18:57;;;;;;;7.85;2.00;;;;;;;;;;5091456;28;20036;-87
2023/09/24 10:21:30;;;;;;;7.38;2.00;;;;;;;;;;5091165;28;20020;-87
2023/09/24 10:23:57;;;;;;;6.85;1.92;;;;;;;;;;5072115;28;20031;-87
2023/09/24 10:26:42;;;;;;;7.93;2.47;;;;;;;;;;5073037;28;20019;-87
2023/09/24 10:29:08;;;;;;;6.22;1.98;;;;;;;;;;5089689;28;20548;-86
2023/09/24 10:31:34;;;;;;;4.35;2.30;;;;;;;;;;5090255;28;20071;-87
2023/09/24 10:34:02;;;;;;;5.80;2.50;;;;;;;;;;5072082;28;20027;-87
2023/09/24 10:36:30;;;;;;;8.13;2.50;;;;;;;;;;5064032;28;20165;-88
2023/09/24 10:39:06;;;;;;;3.65;2.20;;;;;;;;;;5052223;28;20047;-87
2023/09/24 10:41:33;;;;;;;5.35;1.80;;;;;;;;;;5073872;28;20036;-86
2023/09/24 10:44:18;;;;;;;7.20;1.70;;;;;;;;;;5077165;28;20035;-86
2023/09/24 10:46:44;;;;;;;8.32;2.40;;;;;;;;;;5043140;28;20116;-87
2023/09/24 10:49:10;;;;;;;4.85;2.10;;;;;;;;;;5041133;28;20159;-85
2023/09/24 10:51:36;;;;;;;7.35;1.90;;;;;;;;;;5052167;28;20028;-86
2023/09/24 10:54:15;;;;;;;6.03;1.88;;;;;;;;;;5051402;28;20043;-86
2023/09/24 10:56:46;;;;;;;3.70;1.80;;;;;;;;;;5051747;28;20036;-88
2023/09/24 10:59:12;;;;;;;5.05;1.83;;;;;;;;;;5050589;28;20021;-85
2023/09/24 11:01:38;;;;;;;4.80;1.67;;;;;;;;;;5058912;28;20037;-85
2023/09/24 11:04:04;;;;;;;3.97;1.60;;;;;;;;;;5063663;28;20031;-88
2023/09/24 11:06:31;;;;;;;3.55;1.73;;;;;;;;;;5073654;28;20477;-87
2023/09/24 11:09:15;;;;;;;3.92;1.73;;;;;;;;;;5076025;28;20017;-88
2023/09/24 11:11:42;;;;;;;4.30;2.20;;;;;;;;;;5071255;28;20089;-87
2023/09/24 11:14:22;;;;;;;5.72;2.00;;;;;;;;;;5079945;28;20057;-86
2023/09/24 11:16:49;;;;;;;2.97;1.70;;;;;;;;;;5069330;28;20033;-87
2023/09/24 11:19:14;;;;;;;9.40;2.88;;;;;;;;;;5051268;28;20050;-87
2023/09/24 11:21:40;;;;;;;9.77;5.25;;;;;;;;;;5051453;28;20031;-87
2023/09/24 11:24:22;;;;;;;6.10;2.70;;;;;;;;;;5070134;28;20476;-86
2023/09/24 11:26:48;;;;;;;4.05;1.48;;;;;;;;;;5057668;28;20032;-86
2023/09/24 11:29:14;;;;;;;5.43;2.00;;;;;;;;;;5089559;28;20031;-89
2023/09/24 11:31:44;;;;;;;5.10;1.80;;;;;;;;;;5076487;28;20078;-87
2023/09/24 11:34:11;;;;;;;8.07;2.25;;;;;;;;;;5069396;28;20032;-88
2023/09/24 11:36:37;;;;;;;4.30;2.00;;;;;;;;;;5071857;28;20484;-87
2023/09/24 11:39:03;;;;;;;4.30;1.92;;;;;;;;;;5072904;28;20025;-87
2023/09/24 11:41:29;;;;;;;2.25;1.23;;;;;;;;;;5054814;28;20029;-85
2023/09/24 11:43:59;;;;;;;3.40;1.65;;;;;;;;;;5069291;28;20044;-86
2023/09/24 11:46:28;;;;;;;6.70;1.95;;;;;;;;;;5050688;28;20111;-86
2023/09/24 11:49:01;;;;;;;3.70;1.70;;;;;;;;;;5054337;28;20123;-87
2023/09/24 11:51:27;;;;;;;7.93;2.20;;;;;;;;;;5073147;28;20072;-86
2023/09/24 11:53:53;;;;;;;3.25;1.80;;;;;;;;;;5052770;28;20044;-86
2023/09/24 11:56:19;;;;;;;4.80;1.50;;;;;;;;;;5051797;28;20029;-87
2023/09/24 11:58:45;;;;;;;5.93;1.92;;;;;;;;;;5052708;28;20481;-89
2023/09/24 12:01:13;;;;;;;6.20;1.63;;;;;;;;;;5051741;28;20021;-89
2023/09/24 12:03:39;;;;;;;3.40;1.55;;;;;;;;;;5051582;28;20028;-88
2023/09/24 12:06:06;;;;;;;5.72;2.22;;;;;;;;;;5052476;28;20036;-87
2023/09/24 12:08:32;;;;;;;4.00;1.48;;;;;;;;;;5054150;28;20032;-85
2023/09/24 12:10:58;;;;;;;3.45;1.40;;;;;;;;;;5054998;28;20032;-86
2023/09/24 12:13:24;;;;;;;3.35;1.60;;;;;;;;;;5056190;28;20021;-86
2023/09/24 12:15:51;;;;;;;5.00;1.40;;;;;;;;;;5052411;28;20712;-86
2023/09/24 12:18:17;;;;;;;7.68;1.90;;;;;;;;;;5052142;28;20068;-87
2023/09/24 12:20:44;;;;;;;2.08;1.48;;;;;;;;;;5061523;28;20028;-85
2023/09/24 12:23:11;;;;;;;2.47;1.60;;;;;;;;;;5052257;28;20024;-89
2023/09/24 12:25:38;;;;;;;9.70;1.90;;;;;;;;;;5054334;28;20033;-87
2023/09/24 12:28:05;;;;;;;3.92;1.70;;;;;;;;;;5070089;28;20024;-86
2023/09/24 12:30:32;;;;;;;4.88;1.83;;;;;;;;;;5053741;28;20027;-87
2023/09/24 12:32:58;;;;;;;6.93;1.70;;;;;;;;;;5072725;28;20074;-87
2023/09/24 12:35:24;;;;;;;7.10;1.67;;;;;;;;;;5071999;28;20036;-88
2023/09/24 12:37:54;;;;;;;5.43;1.80;;;;;;;;;;5069851;28;20290;-88
2023/09/24 12:40:20;;;;;;;6.22;1.80;;;;;;;;;;5053912;28;20112;-86
2023/09/24 12:42:46;;;;;;;4.35;1.52;;;;;;;;;;5053989;28;20472;-87
2023/09/24 12:45:12;;;;;;;4.18;1.70;;;;;;;;;;5075122;28;20028;-87
2023/09/24 12:47:39;;;;;;;3.13;1.40;;;;;;;;;;5060053;28;20029;-88
2023/09/24 12:50:06;;;;;;;8.52;3.60;;;;;;;;;;5071593;28;20047;-86
2023/09/24 12:52:36;;;;;;;2.03;1.37;;;;;;;;;;5070550;28;20033;-86
2023/09/24 12:55:03;;;;;;;3.83;1.52;;;;;;;;;;5053452;28;20290;-85
2023/09/24 12:57:33;;;;;;;4.45;1.17;;;;;;;;;;5054361;28;20396;-87
2023/09/24 12:59:59;;;;;;;6.20;1.40;;;;;;;;;;5072313;28;20029;-89
2023/09/24 13:02:25;;;;;;;4.93;1.40;;;;;;;;;;5069507;28;20078;-89
2023/09/24 13:04:51;;;;;;;3.35;1.50;;;;;;;;;;5069572;28;20477;-86
2023/09/24 13:07:18;;;;;;;4.95;1.33;;;;;;;;;;5050748;28;20025;-85
2023/09/24 13:09:45;;;;;;;4.22;1.42;;;;;;;;;;5071151;28;20036;-86
2023/09/24 13:12:12;;;;;;;4.35;1.50;;;;;;;;;;5054472;28;20029;-92
2023/09/24 13:14:38;;;;;;;3.40;1.50;;;;;;;;;;5054702;28;20512;-88
2023/09/24 13:17:04;;;;;;;7.25;2.00;;;;;;;;;;5053129;28;20567;-89
2023/09/24 13:19:31;;;;;;;7.25;1.98;;;;;;;;;;5071692;28;20044;-88